Fast Ferries Andros — SVQE — position and weather

sailwx.info

Track history (hours):
 
Tides and Currents Weather Stations Pressure Air Temp Water Temp Dewpoint Dewpoint Depression Visibility Wind Speed Wind Dir Waves Ship Positions

Fast Ferries Andros

Last reported at 2017-Nov-25 11:30 UTC. Time now 2017-Nov-25 11:51 UTC.
Position N 37°30' E 025°14'.

Length 115 m; draft 4.5 m.

Type: Other ship. MMSI: 237955000.

Date/timePositionNaut miles runAvg speedWind from/ knotsBaromVisibWave heightAir tempDewpointWater temp
2017-Nov-25 11:30N 37°30' E 025°14'5 9.5
2017-Nov-25 11:01N 37°32' E 025°09'14 9.7
2017-Nov-25 09:35N 37°31' E 024°52'118.7
2017-Nov-25 09:30N 37°31' E 024°50'918.7
2017-Nov-25 09:01N 37°31' E 024°38'1218.3
2017-Nov-25 08:23N 37°31' E 024°23'3717.7
2017-Nov-25 06:16N 37°45' E 023°40'518.9
2017-Nov-25 06:01N 37°49' E 023°37'714.9
2017-Nov-25 05:30N 37°57' E 023°38'0 0.1
2017-Nov-25 05:00N 37°57' E 023°38'0 0.0
2017-Nov-25 04:30N 37°57' E 023°38'0 0.0
2017-Nov-25 04:00N 37°57' E 023°38'0 0.0
2017-Nov-25 03:30N 37°57' E 023°38'0 0.0
2017-Nov-25 03:00N 37°57' E 023°38'0 0.0
2017-Nov-25 02:30N 37°57' E 023°38'0 0.0
2017-Nov-25 02:00N 37°57' E 023°38'0 0.0
2017-Nov-25 01:30N 37°57' E 023°38'0 0.0
2017-Nov-25 01:00N 37°57' E 023°38'0 0.0
2017-Nov-25 00:30N 37°57' E 023°38'0 0.0
2017-Nov-25 00:00N 37°57' E 023°38'0 0.0
2017-Nov-24 23:30N 37°57' E 023°38'0 0.0
2017-Nov-24 23:00N 37°57' E 023°38'0 0.0
2017-Nov-24 22:30N 37°57' E 023°38'0 0.0
2017-Nov-24 22:00N 37°57' E 023°38'0 0.0
2017-Nov-24 21:30N 37°57' E 023°38'0 0.0
2017-Nov-24 21:00N 37°57' E 023°38'0 0.0
2017-Nov-24 20:30N 37°57' E 023°38'0 0.0
2017-Nov-24 20:00N 37°57' E 023°38'0 0.0
2017-Nov-24 19:30N 37°57' E 023°38'0 0.0
2017-Nov-24 19:00N 37°57' E 023°38'0 0.0
2017-Nov-24 18:30N 37°57' E 023°38'5 9.3
2017-Nov-24 18:01N 37°52' E 023°39'5917.9
2017-Nov-24 14:44N 37°31' E 024°48'817.3
2017-Nov-24 14:16N 37°28' E 024°58'2 3.3
2017-Nov-24 13:41N 37°26' E 024°57'619.7
2017-Nov-24 13:22N 37°29' E 025°04'513.4
2017-Nov-24 12:59N 37°32' E 025°09'712.8
2017-Nov-24 12:27N 37°29' E 025°17'3 5.6
2017-Nov-24 12:00N 37°28' E 025°20'4 7.6
2017-Nov-24 11:30N 37°29' E 025°15'511.0
2017-Nov-24 11:01N 37°32' E 025°09'1117.0
2017-Nov-24 10:21N 37°26' E 024°58'0 0.6
2017-Nov-24 09:55N 37°27' E 024°57'615.6
2017-Nov-24 09:31N 37°31' E 024°52'1019.0
2017-Nov-24 09:00N 37°31' E 024°40'1018.4
2017-Nov-24 08:29N 37°31' E 024°28'4118.2
2017-Nov-24 06:15N 37°45' E 023°40'519.5
2017-Nov-24 06:00N 37°49' E 023°37'714.9
2017-Nov-24 05:30N 37°57' E 023°38'0 0.0
2017-Nov-24 05:01N 37°57' E 023°38'0 0.0
2017-Nov-24 04:31N 37°57' E 023°38'0 0.0
2017-Nov-24 04:01N 37°57' E 023°38'0 0.0
2017-Nov-24 03:31N 37°57' E 023°38'0 0.0
2017-Nov-24 03:01N 37°57' E 023°38'0 0.0
2017-Nov-24 02:31N 37°57' E 023°38'0 0.0
2017-Nov-24 02:01N 37°57' E 023°38'0 0.0
2017-Nov-24 01:31N 37°57' E 023°38'0 0.0
2017-Nov-24 01:01N 37°57' E 023°38'0 0.0
2017-Nov-24 00:30N 37°57' E 023°38'0 0.0
2017-Nov-24 00:01N 37°57' E 023°38'0 0.0
2017-Nov-23 23:31N 37°57' E 023°38'0 0.0
2017-Nov-23 23:00N 37°57' E 023°38'0 0.0
2017-Nov-23 22:31N 37°57' E 023°38'0 0.0
2017-Nov-23 22:01N 37°57' E 023°38'0 0.0
2017-Nov-23 21:31N 37°57' E 023°38'0 0.0
2017-Nov-23 21:01N 37°57' E 023°38'0 0.0
2017-Nov-23 20:31N 37°57' E 023°38'0 0.0
2017-Nov-23 20:01N 37°57' E 023°38'0 0.0
2017-Nov-23 19:31N 37°57' E 023°38'0 0.0
2017-Nov-23 19:01N 37°57' E 023°38'0 0.0
2017-Nov-23 18:31N 37°57' E 023°38'4 8.7
2017-Nov-23 18:01N 37°53' E 023°39'5917.9
2017-Nov-23 14:42N 37°31' E 024°49'817.2
2017-Nov-23 14:15N 37°28' E 024°58'5 6.0
2017-Nov-23 13:22N 37°30' E 025°04'514.2
2017-Nov-23 13:00N 37°32' E 025°09'76 9.6
2017-Nov-23 05:07N 37°57' E 023°38'0 0.0
2017-Nov-23 05:00N 37°57' E 023°38'0 0.0
2017-Nov-23 04:30N 37°57' E 023°38'0 0.0
2017-Nov-23 04:00N 37°57' E 023°38'0 0.0
2017-Nov-23 03:30N 37°57' E 023°38'0 0.0
2017-Nov-23 03:00N 37°57' E 023°38'0 0.0
2017-Nov-23 02:30N 37°57' E 023°38'0 0.0
2017-Nov-23 02:00N 37°57' E 023°38'0 0.0
2017-Nov-23 01:30N 37°57' E 023°38'0 0.0
2017-Nov-23 01:00N 37°57' E 023°38'0 0.0
2017-Nov-23 00:30N 37°57' E 023°38'0 0.0
2017-Nov-23 00:00N 37°57' E 023°38'0 0.0
2017-Nov-22 23:30N 37°57' E 023°38'0 0.0
2017-Nov-22 23:00N 37°57' E 023°38'0 0.0
2017-Nov-22 22:30N 37°57' E 023°38'0 0.0
2017-Nov-22 22:00N 37°57' E 023°38'0 0.0
2017-Nov-22 21:30N 37°57' E 023°38'0 0.0
2017-Nov-22 21:00N 37°57' E 023°38'0 0.0
2017-Nov-22 20:30N 37°57' E 023°38'0 0.0
2017-Nov-22 20:00N 37°57' E 023°38'0 0.0
2017-Nov-22 19:30N 37°57' E 023°38'  
2017-Nov-20 00:30N 37°57' E 023°38'0 0.0
2017-Nov-20 00:00N 37°57' E 023°38'0 0.0
2017-Nov-19 23:30N 37°57' E 023°38'0 0.0
2017-Nov-19 23:00N 37°57' E 023°38'0 0.0
2017-Nov-19 22:31N 37°57' E 023°38'0 0.0
2017-Nov-19 22:00N 37°57' E 023°38'0 0.0
2017-Nov-19 21:31N 37°57' E 023°38'0 0.0
2017-Nov-19 21:01N 37°57' E 023°38'0 0.0
2017-Nov-19 20:31N 37°57' E 023°38'0 0.0
2017-Nov-19 20:00N 37°57' E 023°38'0 0.0
2017-Nov-19 19:31N 37°57' E 023°38'0 0.0
2017-Nov-19 19:01N 37°57' E 023°38'0 0.0
2017-Nov-19 18:30N 37°57' E 023°38'5 9.8
2017-Nov-19 18:01N 37°52' E 023°39'5517.7
2017-Nov-19 14:52N 37°31' E 024°44'1216.8
2017-Nov-19 14:11N 37°27' E 024°58'1 2.3
2017-Nov-19 13:42N 37°26' E 024°58'619.0
2017-Nov-19 13:24N 37°29' E 025°04'513.6
2017-Nov-19 13:00N 37°32' E 025°09'510.8
2017-Nov-19 12:30N 37°29' E 025°15'4 7.7
2017-Nov-19 12:00N 37°28' E 025°20'2 3.4
2017-Nov-19 11:30N 37°28' E 025°18'815.0
2017-Nov-19 11:00N 37°32' E 025°09'1110.4
2017-Nov-19 09:54N 37°26' E 024°57'715.5
2017-Nov-19 09:28N 37°31' E 024°52'6017.9
2017-Nov-19 06:07N 37°47' E 023°38'219.2
2017-Nov-19 06:01N 37°49' E 023°37'7 0.6
2017-Nov-18 18:17N 37°56' E 023°38'414.8
2017-Nov-18 18:00N 37°52' E 023°39'5717.9
2017-Nov-18 14:48N 37°31' E 024°46'917.5
2017-Nov-18 14:16N 37°28' E 024°57'4 5.3
2017-Nov-18 13:25N 37°29' E 025°03'615.0
2017-Nov-18 13:00N 37°32' E 025°09'611.1
2017-Nov-18 12:30N 37°29' E 025°15'4 7.6
2017-Nov-18 12:00N 37°28' E 025°20'510.4
2017-Nov-18 11:30N 37°30' E 025°14'4 8.9
2017-Nov-18 11:00N 37°32' E 025°09'919.0
2017-Nov-18 10:30N 37°27' E 024°58'1 2.6
2017-Nov-18 10:00N 37°26' E 024°57'714.9
2017-Nov-18 09:31N 37°31' E 024°50'5917.6
2017-Nov-18 06:09N 37°47' E 023°38'318.8
2017-Nov-18 06:00N 37°50' E 023°37'6 0.5
2017-Nov-17 18:22N 37°56' E 023°37'718.9
2017-Nov-17 18:00N 37°50' E 023°40'5417.6
2017-Nov-17 14:58N 37°31' E 024°44'1118.0
2017-Nov-17 14:22N 37°29' E 024°57'5 5.6
2017-Nov-17 13:23N 37°30' E 025°04'512.9
2017-Nov-17 13:00N 37°32' E 025°09'510.6
2017-Nov-17 12:30N 37°29' E 025°15'4 8.1
2017-Nov-17 12:00N 37°28' E 025°20'5 9.3
2017-Nov-17 11:30N 37°30' E 025°14'5 9.6
2017-Nov-17 11:00N 37°32' E 025°09'14 9.6
2017-Nov-17 09:33N 37°31' E 024°51'119.3
2017-Nov-17 09:31N 37°31' E 024°50'5717.9
2017-Nov-17 06:20N 37°44' E 023°40'619.0
2017-Nov-17 06:01N 37°50' E 023°37'714.5
2017-Nov-17 05:30N 37°57' E 023°38'0 0.0
2017-Nov-17 05:00N 37°57' E 023°38'0 0.0
2017-Nov-17 04:30N 37°57' E 023°38'0 0.0
2017-Nov-17 04:00N 37°57' E 023°38'0 0.0
2017-Nov-17 03:30N 37°57' E 023°38'0 0.0
2017-Nov-17 03:00N 37°57' E 023°38'0 0.0
2017-Nov-17 02:30N 37°57' E 023°38'0 0.0
2017-Nov-17 02:00N 37°57' E 023°38'0 0.0
2017-Nov-17 01:30N 37°57' E 023°38'0 0.0
2017-Nov-17 01:00N 37°57' E 023°38'0 0.0
2017-Nov-17 00:30N 37°57' E 023°38'0 0.0
2017-Nov-17 00:00N 37°57' E 023°38'0 0.0
2017-Nov-16 23:30N 37°57' E 023°38'0 0.0
2017-Nov-16 23:00N 37°57' E 023°38'0 0.0
2017-Nov-16 22:30N 37°57' E 023°38'0 0.0
2017-Nov-16 22:00N 37°57' E 023°38'0 0.0
2017-Nov-16 21:30N 37°57' E 023°38'0 0.0
2017-Nov-16 21:00N 37°57' E 023°38'0 0.0
2017-Nov-16 20:30N 37°57' E 023°38'0 0.0
2017-Nov-16 20:00N 37°57' E 023°38'0 0.0
2017-Nov-16 19:30N 37°57' E 023°38'0 0.0
2017-Nov-16 19:00N 37°57' E 023°38'0 0.0
2017-Nov-16 18:30N 37°57' E 023°38'4 8.7
2017-Nov-16 18:00N 37°53' E 023°39'5617.7
2017-Nov-16 14:51N 37°31' E 024°44'1117.4
2017-Nov-16 14:12N 37°28' E 024°58'5 6.1
2017-Nov-16 13:24N 37°29' E 025°04'514.2
2017-Nov-16 13:00N 37°32' E 025°09'713.3
2017-Nov-16 12:30N 37°29' E 025°17'2 5.0
2017-Nov-16 12:01N 37°28' E 025°19'3 6.4
2017-Nov-16 11:30N 37°29' E 025°16'611.8
2017-Nov-16 11:01N 37°32' E 025°09'1117.8
2017-Nov-16 10:23N 37°26' E 024°58'0 1.1
2017-Nov-16 10:00N 37°27' E 024°57'815.7
2017-Nov-16 09:31N 37°31' E 024°50'5618.0
2017-Nov-16 06:26N 37°43' E 023°41'818.9
2017-Nov-16 06:00N 37°50' E 023°37'713.6
2017-Nov-16 05:31N 37°57' E 023°38'0 0.0
2017-Nov-16 05:01N 37°57' E 023°38'0 0.0
2017-Nov-16 04:31N 37°57' E 023°38'0 0.0
2017-Nov-16 04:01N 37°57' E 023°38'0 0.0
2017-Nov-16 03:30N 37°57' E 023°38'0 0.0
2017-Nov-16 03:00N 37°57' E 023°38'0 0.0
2017-Nov-16 02:31N 37°57' E 023°38'0 0.0
2017-Nov-16 02:01N 37°57' E 023°38'0 0.0
2017-Nov-16 01:31N 37°57' E 023°38'0 0.0
2017-Nov-16 01:00N 37°57' E 023°38'0 0.0
2017-Nov-16 00:31N 37°57' E 023°38'0 0.0
2017-Nov-16 00:01N 37°57' E 023°38'0 0.0
2017-Nov-15 23:30N 37°57' E 023°38'0 0.0
2017-Nov-15 23:00N 37°57' E 023°38'0 0.0
2017-Nov-15 22:31N 37°57' E 023°38'0 0.0
2017-Nov-15 22:01N 37°57' E 023°38'0 0.0
2017-Nov-15 21:31N 37°57' E 023°38'0 0.0
2017-Nov-15 21:01N 37°57' E 023°38'0 0.0
2017-Nov-15 20:31N 37°57' E 023°38'0 0.0
2017-Nov-15 20:01N 37°57' E 023°38'0 0.0
2017-Nov-15 19:31N 37°57' E 023°38'0 0.0
2017-Nov-15 19:00N 37°57' E 023°38'0 0.0
2017-Nov-15 18:31N 37°57' E 023°38'510.2
2017-Nov-15 18:00N 37°52' E 023°39'5517.9
2017-Nov-15 14:55N 37°31' E 024°44'1117.5
2017-Nov-15 14:16N 37°28' E 024°57'1 2.7
2017-Nov-15 13:45N 37°26' E 024°57'619.4
2017-Nov-15 13:25N 37°30' E 025°04'511.7
2017-Nov-15 13:00N 37°32' E 025°09'917.8
2017-Nov-15 12:30N 37°28' E 025°19'0 0.9
2017-Nov-15 12:00N 37°28' E 025°19'  
Track history (hours):
 
Tides and Currents Weather Stations Pressure Air Temp Water Temp Dewpoint Dewpoint Depression Visibility Wind Speed Wind Dir Waves Ship Positions

Fast Ferries Andros

Last reported at 2017-Nov-25 11:30 UTC. Time now 2017-Nov-25 11:51 UTC.
Position N 37°30' E 025°14'.

Length 115 m; draft 4.5 m.

Type: Other ship. MMSI: 237955000.

Date/timePositionNaut miles runAvg speedWind from/ knotsBaromVisibWave heightAir tempDewpointWater temp
2017-Nov-25 11:30N 37°30' E 025°14'5 9.5
2017-Nov-25 11:01N 37°32' E 025°09'14 9.7
2017-Nov-25 09:35N 37°31' E 024°52'118.7
2017-Nov-25 09:30N 37°31' E 024°50'918.7
2017-Nov-25 09:01N 37°31' E 024°38'1218.3
2017-Nov-25 08:23N 37°31' E 024°23'3717.7
2017-Nov-25 06:16N 37°45' E 023°40'518.9
2017-Nov-25 06:01N 37°49' E 023°37'714.9
2017-Nov-25 05:30N 37°57' E 023°38'0 0.1
2017-Nov-25 05:00N 37°57' E 023°38'0 0.0
2017-Nov-25 04:30N 37°57' E 023°38'0 0.0
2017-Nov-25 04:00N 37°57' E 023°38'0 0.0
2017-Nov-25 03:30N 37°57' E 023°38'0 0.0
2017-Nov-25 03:00N 37°57' E 023°38'0 0.0
2017-Nov-25 02:30N 37°57' E 023°38'0 0.0
2017-Nov-25 02:00N 37°57' E 023°38'0 0.0
2017-Nov-25 01:30N 37°57' E 023°38'0 0.0
2017-Nov-25 01:00N 37°57' E 023°38'0 0.0
2017-Nov-25 00:30N 37°57' E 023°38'0 0.0
2017-Nov-25 00:00N 37°57' E 023°38'0 0.0
2017-Nov-24 23:30N 37°57' E 023°38'0 0.0
2017-Nov-24 23:00N 37°57' E 023°38'0 0.0
2017-Nov-24 22:30N 37°57' E 023°38'0 0.0
2017-Nov-24 22:00N 37°57' E 023°38'0 0.0
2017-Nov-24 21:30N 37°57' E 023°38'0 0.0
2017-Nov-24 21:00N 37°57' E 023°38'0 0.0
2017-Nov-24 20:30N 37°57' E 023°38'0 0.0
2017-Nov-24 20:00N 37°57' E 023°38'0 0.0
2017-Nov-24 19:30N 37°57' E 023°38'0 0.0
2017-Nov-24 19:00N 37°57' E 023°38'0 0.0
2017-Nov-24 18:30N 37°57' E 023°38'5 9.3
2017-Nov-24 18:01N 37°52' E 023°39'5917.9
2017-Nov-24 14:44N 37°31' E 024°48'817.3
2017-Nov-24 14:16N 37°28' E 024°58'2 3.3
2017-Nov-24 13:41N 37°26' E 024°57'619.7
2017-Nov-24 13:22N 37°29' E 025°04'513.4
2017-Nov-24 12:59N 37°32' E 025°09'712.8
2017-Nov-24 12:27N 37°29' E 025°17'3 5.6
2017-Nov-24 12:00N 37°28' E 025°20'4 7.6
2017-Nov-24 11:30N 37°29' E 025°15'511.0
2017-Nov-24 11:01N 37°32' E 025°09'1117.0
2017-Nov-24 10:21N 37°26' E 024°58'0 0.6
2017-Nov-24 09:55N 37°27' E 024°57'615.6
2017-Nov-24 09:31N 37°31' E 024°52'1019.0
2017-Nov-24 09:00N 37°31' E 024°40'1018.4
2017-Nov-24 08:29N 37°31' E 024°28'4118.2
2017-Nov-24 06:15N 37°45' E 023°40'519.5
2017-Nov-24 06:00N 37°49' E 023°37'714.9
2017-Nov-24 05:30N 37°57' E 023°38'0 0.0
2017-Nov-24 05:01N 37°57' E 023°38'0 0.0
2017-Nov-24 04:31N 37°57' E 023°38'0 0.0
2017-Nov-24 04:01N 37°57' E 023°38'0 0.0
2017-Nov-24 03:31N 37°57' E 023°38'0 0.0
2017-Nov-24 03:01N 37°57' E 023°38'0 0.0
2017-Nov-24 02:31N 37°57' E 023°38'0 0.0
2017-Nov-24 02:01N 37°57' E 023°38'0 0.0
2017-Nov-24 01:31N 37°57' E 023°38'0 0.0
2017-Nov-24 01:01N 37°57' E 023°38'0 0.0
2017-Nov-24 00:30N 37°57' E 023°38'0 0.0
2017-Nov-24 00:01N 37°57' E 023°38'0 0.0
2017-Nov-23 23:31N 37°57' E 023°38'0 0.0
2017-Nov-23 23:00N 37°57' E 023°38'0 0.0
2017-Nov-23 22:31N 37°57' E 023°38'0 0.0
2017-Nov-23 22:01N 37°57' E 023°38'0 0.0
2017-Nov-23 21:31N 37°57' E 023°38'0 0.0
2017-Nov-23 21:01N 37°57' E 023°38'0 0.0
2017-Nov-23 20:31N 37°57' E 023°38'0 0.0
2017-Nov-23 20:01N 37°57' E 023°38'0 0.0
2017-Nov-23 19:31N 37°57' E 023°38'0 0.0
2017-Nov-23 19:01N 37°57' E 023°38'0 0.0
2017-Nov-23 18:31N 37°57' E 023°38'4 8.7
2017-Nov-23 18:01N 37°53' E 023°39'5917.9
2017-Nov-23 14:42N 37°31' E 024°49'817.2
2017-Nov-23 14:15N 37°28' E 024°58'5 6.0
2017-Nov-23 13:22N 37°30' E 025°04'514.2
2017-Nov-23 13:00N 37°32' E 025°09'76 9.6
2017-Nov-23 05:07N 37°57' E 023°38'0 0.0
2017-Nov-23 05:00N 37°57' E 023°38'0 0.0
2017-Nov-23 04:30N 37°57' E 023°38'0 0.0
2017-Nov-23 04:00N 37°57' E 023°38'0 0.0
2017-Nov-23 03:30N 37°57' E 023°38'0 0.0
2017-Nov-23 03:00N 37°57' E 023°38'0 0.0
2017-Nov-23 02:30N 37°57' E 023°38'0 0.0
2017-Nov-23 02:00N 37°57' E 023°38'0 0.0
2017-Nov-23 01:30N 37°57' E 023°38'0 0.0
2017-Nov-23 01:00N 37°57' E 023°38'0 0.0
2017-Nov-23 00:30N 37°57' E 023°38'0 0.0
2017-Nov-23 00:00N 37°57' E 023°38'0 0.0
2017-Nov-22 23:30N 37°57' E 023°38'0 0.0
2017-Nov-22 23:00N 37°57' E 023°38'0 0.0
2017-Nov-22 22:30N 37°57' E 023°38'0 0.0
2017-Nov-22 22:00N 37°57' E 023°38'0 0.0
2017-Nov-22 21:30N 37°57' E 023°38'0 0.0
2017-Nov-22 21:00N 37°57' E 023°38'0 0.0
2017-Nov-22 20:30N 37°57' E 023°38'0 0.0
2017-Nov-22 20:00N 37°57' E 023°38'0 0.0
2017-Nov-22 19:30N 37°57' E 023°38'  
2017-Nov-20 00:30N 37°57' E 023°38'0 0.0
2017-Nov-20 00:00N 37°57' E 023°38'0 0.0
2017-Nov-19 23:30N 37°57' E 023°38'0 0.0
2017-Nov-19 23:00N 37°57' E 023°38'0 0.0
2017-Nov-19 22:31N 37°57' E 023°38'0 0.0
2017-Nov-19 22:00N 37°57' E 023°38'0 0.0
2017-Nov-19 21:31N 37°57' E 023°38'0 0.0
2017-Nov-19 21:01N 37°57' E 023°38'0 0.0
2017-Nov-19 20:31N 37°57' E 023°38'0 0.0
2017-Nov-19 20:00N 37°57' E 023°38'0 0.0
2017-Nov-19 19:31N 37°57' E 023°38'0 0.0
2017-Nov-19 19:01N 37°57' E 023°38'0 0.0
2017-Nov-19 18:30N 37°57' E 023°38'5 9.8
2017-Nov-19 18:01N 37°52' E 023°39'5517.7
2017-Nov-19 14:52N 37°31' E 024°44'1216.8
2017-Nov-19 14:11N 37°27' E 024°58'1 2.3
2017-Nov-19 13:42N 37°26' E 024°58'619.0
2017-Nov-19 13:24N 37°29' E 025°04'513.6
2017-Nov-19 13:00N 37°32' E 025°09'510.8
2017-Nov-19 12:30N 37°29' E 025°15'4 7.7
2017-Nov-19 12:00N 37°28' E 025°20'2 3.4
2017-Nov-19 11:30N 37°28' E 025°18'815.0
2017-Nov-19 11:00N 37°32' E 025°09'1110.4
2017-Nov-19 09:54N 37°26' E 024°57'715.5
2017-Nov-19 09:28N 37°31' E 024°52'6017.9
2017-Nov-19 06:07N 37°47' E 023°38'219.2
2017-Nov-19 06:01N 37°49' E 023°37'7 0.6
2017-Nov-18 18:17N 37°56' E 023°38'414.8
2017-Nov-18 18:00N 37°52' E 023°39'5717.9
2017-Nov-18 14:48N 37°31' E 024°46'917.5
2017-Nov-18 14:16N 37°28' E 024°57'4 5.3
2017-Nov-18 13:25N 37°29' E 025°03'615.0
2017-Nov-18 13:00N 37°32' E 025°09'611.1
2017-Nov-18 12:30N 37°29' E 025°15'4 7.6
2017-Nov-18 12:00N 37°28' E 025°20'510.4
2017-Nov-18 11:30N 37°30' E 025°14'4 8.9
2017-Nov-18 11:00N 37°32' E 025°09'919.0
2017-Nov-18 10:30N 37°27' E 024°58'1 2.6
2017-Nov-18 10:00N 37°26' E 024°57'714.9
2017-Nov-18 09:31N 37°31' E 024°50'5917.6
2017-Nov-18 06:09N 37°47' E 023°38'318.8
2017-Nov-18 06:00N 37°50' E 023°37'6 0.5
2017-Nov-17 18:22N 37°56' E 023°37'718.9
2017-Nov-17 18:00N 37°50' E 023°40'5417.6
2017-Nov-17 14:58N 37°31' E 024°44'1118.0
2017-Nov-17 14:22N 37°29' E 024°57'5 5.6
2017-Nov-17 13:23N 37°30' E 025°04'512.9
2017-Nov-17 13:00N 37°32' E 025°09'510.6
2017-Nov-17 12:30N 37°29' E 025°15'4 8.1
2017-Nov-17 12:00N 37°28' E 025°20'5 9.3
2017-Nov-17 11:30N 37°30' E 025°14'5 9.6
2017-Nov-17 11:00N 37°32' E 025°09'14 9.6
2017-Nov-17 09:33N 37°31' E 024°51'119.3
2017-Nov-17 09:31N 37°31' E 024°50'5717.9
2017-Nov-17 06:20N 37°44' E 023°40'619.0
2017-Nov-17 06:01N 37°50' E 023°37'714.5
2017-Nov-17 05:30N 37°57' E 023°38'0 0.0
2017-Nov-17 05:00N 37°57' E 023°38'0 0.0
2017-Nov-17 04:30N 37°57' E 023°38'0 0.0
2017-Nov-17 04:00N 37°57' E 023°38'0 0.0
2017-Nov-17 03:30N 37°57' E 023°38'0 0.0
2017-Nov-17 03:00N 37°57' E 023°38'0 0.0
2017-Nov-17 02:30N 37°57' E 023°38'0 0.0
2017-Nov-17 02:00N 37°57' E 023°38'0 0.0
2017-Nov-17 01:30N 37°57' E 023°38'0 0.0
2017-Nov-17 01:00N 37°57' E 023°38'0 0.0
2017-Nov-17 00:30N 37°57' E 023°38'0 0.0
2017-Nov-17 00:00N 37°57' E 023°38'0 0.0
2017-Nov-16 23:30N 37°57' E 023°38'0 0.0
2017-Nov-16 23:00N 37°57' E 023°38'0 0.0
2017-Nov-16 22:30N 37°57' E 023°38'0 0.0
2017-Nov-16 22:00N 37°57' E 023°38'0 0.0
2017-Nov-16 21:30N 37°57' E 023°38'0 0.0
2017-Nov-16 21:00N 37°57' E 023°38'0 0.0
2017-Nov-16 20:30N 37°57' E 023°38'0 0.0
2017-Nov-16 20:00N 37°57' E 023°38'0 0.0
2017-Nov-16 19:30N 37°57' E 023°38'0 0.0
2017-Nov-16 19:00N 37°57' E 023°38'0 0.0
2017-Nov-16 18:30N 37°57' E 023°38'4 8.7
2017-Nov-16 18:00N 37°53' E 023°39'5617.7
2017-Nov-16 14:51N 37°31' E 024°44'1117.4
2017-Nov-16 14:12N 37°28' E 024°58'5 6.1
2017-Nov-16 13:24N 37°29' E 025°04'514.2
2017-Nov-16 13:00N 37°32' E 025°09'713.3
2017-Nov-16 12:30N 37°29' E 025°17'2 5.0
2017-Nov-16 12:01N 37°28' E 025°19'3 6.4
2017-Nov-16 11:30N 37°29' E 025°16'611.8
2017-Nov-16 11:01N 37°32' E 025°09'1117.8
2017-Nov-16 10:23N 37°26' E 024°58'0 1.1
2017-Nov-16 10:00N 37°27' E 024°57'815.7
2017-Nov-16 09:31N 37°31' E 024°50'5618.0
2017-Nov-16 06:26N 37°43' E 023°41'818.9
2017-Nov-16 06:00N 37°50' E 023°37'713.6
2017-Nov-16 05:31N 37°57' E 023°38'0 0.0
2017-Nov-16 05:01N 37°57' E 023°38'0 0.0
2017-Nov-16 04:31N 37°57' E 023°38'0 0.0
2017-Nov-16 04:01N 37°57' E 023°38'0 0.0
2017-Nov-16 03:30N 37°57' E 023°38'0 0.0
2017-Nov-16 03:00N 37°57' E 023°38'0 0.0
2017-Nov-16 02:31N 37°57' E 023°38'0 0.0
2017-Nov-16 02:01N 37°57' E 023°38'0 0.0
2017-Nov-16 01:31N 37°57' E 023°38'0 0.0
2017-Nov-16 01:00N 37°57' E 023°38'0 0.0
2017-Nov-16 00:31N 37°57' E 023°38'0 0.0
2017-Nov-16 00:01N 37°57' E 023°38'0 0.0
2017-Nov-15 23:30N 37°57' E 023°38'0 0.0
2017-Nov-15 23:00N 37°57' E 023°38'0 0.0
2017-Nov-15 22:31N 37°57' E 023°38'0 0.0
2017-Nov-15 22:01N 37°57' E 023°38'0 0.0
2017-Nov-15 21:31N 37°57' E 023°38'0 0.0
2017-Nov-15 21:01N 37°57' E 023°38'0 0.0
2017-Nov-15 20:31N 37°57' E 023°38'0 0.0
2017-Nov-15 20:01N 37°57' E 023°38'0 0.0
2017-Nov-15 19:31N 37°57' E 023°38'0 0.0
2017-Nov-15 19:00N 37°57' E 023°38'0 0.0
2017-Nov-15 18:31N 37°57' E 023°38'510.2
2017-Nov-15 18:00N 37°52' E 023°39'5517.9
2017-Nov-15 14:55N 37°31' E 024°44'1117.5
2017-Nov-15 14:16N 37°28' E 024°57'1 2.7
2017-Nov-15 13:45N 37°26' E 024°57'619.4
2017-Nov-15 13:25N 37°30' E 025°04'511.7
2017-Nov-15 13:00N 37°32' E 025°09'917.8
2017-Nov-15 12:30N 37°28' E 025°19'0 0.9
2017-Nov-15 12:00N 37°28' E 025°19'  

Dump ship's entire track history